Mc Clellan-Palomar Airport
KCRQ : rendu visible

Aérodrome :











RETROUVEZ-NOUS SUR...

 
LOGIN :

S'inscrire | Disclaimer

   EN    FR    IT 

 









Légende :    VFR   VFR Marginal   IFR   IFR Intensif   IFR Très Intensif
Visi : 
Plafond : 
>= 8 km
>= 3000ft
5 à 8 km
1000 à 3000 ft
1500m à 5 km
500 à 1000 ft
800 à 1500m
200 à 500 ft
< 800m
< 200 ft
Symboles :   Orages  Brouillard  Fortes neiges  Fortes précipitations  Vent > 20 kt






- Altitude de l'aérodrome : 331 ft


KCRQ - Mc Clellan-Palomar

DERNIER METAR :
  • 180853Z AUTO 08003KT 10SM CLR 09/07 A3019 RMK AO2 SLP223 T00890072 58001

METARs EXPIRÉS :
  • 180753Z AUTO 07004KT 10SM CLR 10/08 A3019 RMK AO2 SLP223 T01000078 401560094
  • 180653Z AUTO 00000KT 9SM CLR 09/08 A3020 RMK AO2 SLP225 T00940078

TAF KCRQ
Valide du 18 à 06h jusqu'au 19 à 06h UTC


180520Z 1806/1906 VRB05KT P6SM SCT250
FM182100 28007KT P6SM BKN250
FM190100 VRB04KT P6SM BKN250



MET'MAP, la Météo Aéronautique d'un coup d'oeil ! - Copyright ORBIFLY Décembre 2007 - Disclaimer

ORBIFLY MET'MAP TEAM :

Programmation & Développement : Alexandra Zaïnal
Sur une idée originale de : Baudouin d'Aumeries
Assistance à la programmation : Marc-Olivier Méhu
Soutien technique & logistique : Manuel Goepfert

Contact : metmap@orbifly.com




SOURCES & CREDITS :

   NOAA       Earth
Advisory